IBC2861 GCLP-LEZL
Flight info
| Callsign | IBC2861 |
|---|---|
| Flight time | 1h 51m |
| Altitude | 36000 |
| Route | KORAL UG5 SONSO DCT NIRAL UN871 ADUBI DCT VJF |
| Aircraft | A320/M-SDE3FGHIRWY/LB1 |
Departure
| Time | 2026-04-26 08:38 |
|---|---|
| Airport | Gran Canaria Airport (GCLP) |
Arrival
| Time | 2026-04-26 10:29 |
|---|---|
| Airport | Seville Airport (LEZL) |
| Time | Latitude | Longitude | Altitude | Speed | Heading |
|---|---|---|---|---|---|
| 2026-04-26 07:56 | 27.93815 | -15.38837 | 85 ft | 0 kts | 291° |
| 2026-04-26 08:26 | 27.93812 | -15.38829 | 88 ft | 4 kts | 291° |
| 2026-04-26 08:26 | 27.93802 | -15.38801 | 88 ft | 4 kts | 291° |
| 2026-04-26 08:27 | 27.93795 | -15.38777 | 87 ft | 4 kts | 273° |
| 2026-04-26 08:27 | 27.93801 | -15.38752 | 83 ft | 4 kts | 224° |
| 2026-04-26 08:27 | 27.93821 | -15.38736 | 83 ft | 2 kts | 201° |
| 2026-04-26 08:27 | 27.93823 | -15.38736 | 83 ft | 0 kts | 201° |
| 2026-04-26 08:30 | 27.93820 | -15.38737 | 83 ft | 2 kts | 201° |
| 2026-04-26 08:30 | 27.93772 | -15.38758 | 85 ft | 9 kts | 201° |
| 2026-04-26 08:31 | 27.93720 | -15.38781 | 88 ft | 7 kts | 202° |
| 2026-04-26 08:31 | 27.93655 | -15.38810 | 84 ft | 14 kts | 201° |
| 2026-04-26 08:31 | 27.93555 | -15.38854 | 84 ft | 15 kts | 201° |
| 2026-04-26 08:31 | 27.93459 | -15.38890 | 86 ft | 14 kts | 201° |
| 2026-04-26 08:32 | 27.93374 | -15.38927 | 85 ft | 12 kts | 201° |
| 2026-04-26 08:32 | 27.93291 | -15.38964 | 86 ft | 14 kts | 201° |
| 2026-04-26 08:32 | 27.93193 | -15.39007 | 83 ft | 15 kts | 201° |
| 2026-04-26 08:32 | 27.93103 | -15.39046 | 86 ft | 13 kts | 201° |
| 2026-04-26 08:33 | 27.93009 | -15.39088 | 84 ft | 20 kts | 201° |
| 2026-04-26 08:33 | 27.92871 | -15.39149 | 89 ft | 21 kts | 201° |
| 2026-04-26 08:33 | 27.92751 | -15.39230 | 91 ft | 19 kts | 216° |
| 2026-04-26 08:33 | 27.92637 | -15.39286 | 96 ft | 16 kts | 200° |
| 2026-04-26 08:34 | 27.92537 | -15.39329 | 99 ft | 14 kts | 195° |
| 2026-04-26 08:34 | 27.92463 | -15.39306 | 99 ft | 11 kts | 140° |
| 2026-04-26 08:34 | 27.92423 | -15.39231 | 96 ft | 11 kts | 126° |
| 2026-04-26 08:34 | 27.92356 | -15.39225 | 97 ft | 14 kts | 201° |
| 2026-04-26 08:35 | 27.92241 | -15.39276 | 99 ft | 18 kts | 201° |
| 2026-04-26 08:35 | 27.92152 | -15.39306 | 96 ft | 10 kts | 187° |
| 2026-04-26 08:35 | 27.92079 | -15.39304 | 93 ft | 11 kts | 177° |
| 2026-04-26 08:35 | 27.91996 | -15.39299 | 91 ft | 12 kts | 176° |
| 2026-04-26 08:36 | 27.91927 | -15.39259 | 87 ft | 12 kts | 108° |
| 2026-04-26 08:36 | 27.91971 | -15.39196 | 84 ft | 4 kts | 22° |
| 2026-04-26 08:36 | 27.91972 | -15.39196 | 84 ft | 0 kts | 22° |
| 2026-04-26 08:37 | 27.92058 | -15.39159 | 86 ft | 41 kts | 21° |
| 2026-04-26 08:37 | 27.92554 | -15.38939 | 68 ft | 109 kts | 21° |
| 2026-04-26 08:37 | 27.93431 | -15.38554 | 60 ft | 160 kts | 21° |
| 2026-04-26 08:37 | 27.94495 | -15.38066 | 613 ft | 162 kts | 21° |
| 2026-04-26 08:38 | 27.95527 | -15.37600 | 1328 ft | 159 kts | 18° |
| 2026-04-26 08:38 | 27.96556 | -15.37176 | 1919 ft | 163 kts | 19° |
| 2026-04-26 08:38 | 27.97699 | -15.36694 | 2156 ft | 188 kts | 24° |
| 2026-04-26 08:38 | 27.98998 | -15.36125 | 2423 ft | 213 kts | 24° |
| 2026-04-26 08:39 | 28.00456 | -15.35488 | 2791 ft | 236 kts | 22° |
| 2026-04-26 08:39 | 28.02031 | -15.34810 | 3481 ft | 245 kts | 20° |
| 2026-04-26 08:39 | 28.03651 | -15.34121 | 3924 ft | 251 kts | 20° |
| 2026-04-26 08:39 | 28.05286 | -15.33421 | 3988 ft | 251 kts | 20° |
| 2026-04-26 08:40 | 28.06897 | -15.32723 | 3997 ft | 251 kts | 20° |
| 2026-04-26 08:40 | 28.08528 | -15.32013 | 4015 ft | 251 kts | 20° |
| 2026-04-26 08:40 | 28.10156 | -15.31299 | 4028 ft | 251 kts | 20° |
| 2026-04-26 08:40 | 28.11787 | -15.30587 | 4032 ft | 251 kts | 20° |
| 2026-04-26 08:41 | 28.13405 | -15.29853 | 4000 ft | 250 kts | 26° |
| 2026-04-26 08:41 | 28.14768 | -15.28625 | 4058 ft | 257 kts | 50° |
| 2026-04-26 08:41 | 28.15765 | -15.26923 | 4865 ft | 259 kts | 54° |
| 2026-04-26 08:41 | 28.16758 | -15.25208 | 5728 ft | 262 kts | 54° |
| 2026-04-26 08:42 | 28.17776 | -15.23481 | 6532 ft | 266 kts | 54° |
| 2026-04-26 08:42 | 28.18813 | -15.21722 | 7318 ft | 271 kts | 54° |
| 2026-04-26 08:42 | 28.19864 | -15.19936 | 8086 ft | 275 kts | 55° |
| 2026-04-26 08:42 | 28.20936 | -15.18115 | 8819 ft | 280 kts | 55° |
| 2026-04-26 08:43 | 28.22022 | -15.16265 | 9538 ft | 285 kts | 55° |
| 2026-04-26 08:43 | 28.23126 | -15.14378 | 10220 ft | 290 kts | 55° |
| 2026-04-26 08:43 | 28.24280 | -15.12402 | 10497 ft | 312 kts | 55° |
| 2026-04-26 08:43 | 28.25521 | -15.10275 | 10668 ft | 335 kts | 55° |
| 2026-04-26 08:44 | 28.26392 | -15.08783 | 10769 ft | 349 kts | 55° |
| 2026-04-26 08:44 | 28.27756 | -15.06445 | 11223 ft | 360 kts | 55° |
| 2026-04-26 08:44 | 28.29145 | -15.04057 | 11828 ft | 365 kts | 55° |
| 2026-04-26 08:44 | 28.30552 | -15.01632 | 12441 ft | 370 kts | 55° |
| 2026-04-26 08:45 | 28.31976 | -14.99176 | 13052 ft | 375 kts | 55° |
| 2026-04-26 08:45 | 28.33419 | -14.96693 | 13659 ft | 379 kts | 55° |
| 2026-04-26 08:45 | 28.34878 | -14.94183 | 14262 ft | 383 kts | 55° |
| 2026-04-26 08:45 | 28.36353 | -14.91643 | 14822 ft | 387 kts | 55° |
| 2026-04-26 08:46 | 28.37844 | -14.89076 | 15391 ft | 391 kts | 55° |
| 2026-04-26 08:46 | 28.39349 | -14.86485 | 15945 ft | 395 kts | 55° |
| 2026-04-26 08:46 | 28.40870 | -14.83864 | 16494 ft | 399 kts | 55° |
| 2026-04-26 08:46 | 28.42405 | -14.81217 | 17030 ft | 403 kts | 55° |
| 2026-04-26 08:47 | 28.43954 | -14.78543 | 17550 ft | 407 kts | 55° |
| 2026-04-26 08:47 | 28.45495 | -14.75876 | 18111 ft | 411 kts | 55° |
| 2026-04-26 08:47 | 28.47073 | -14.73142 | 18627 ft | 416 kts | 55° |
| 2026-04-26 08:47 | 28.48665 | -14.70381 | 19118 ft | 420 kts | 55° |
| 2026-04-26 08:48 | 28.50273 | -14.67591 | 19611 ft | 424 kts | 55° |
| 2026-04-26 08:48 | 28.51896 | -14.64776 | 20083 ft | 428 kts | 55° |
| 2026-04-26 08:48 | 28.53534 | -14.61936 | 20550 ft | 431 kts | 55° |
| 2026-04-26 08:48 | 28.55188 | -14.59070 | 20982 ft | 435 kts | 55° |
| 2026-04-26 08:49 | 28.56857 | -14.56180 | 21392 ft | 439 kts | 55° |
| 2026-04-26 08:49 | 28.58539 | -14.53264 | 21799 ft | 443 kts | 55° |
| 2026-04-26 08:49 | 28.60234 | -14.50321 | 22192 ft | 446 kts | 55° |
| 2026-04-26 08:49 | 28.61938 | -14.47359 | 22594 ft | 449 kts | 55° |
| 2026-04-26 08:50 | 28.63655 | -14.44375 | 22973 ft | 452 kts | 55° |
| 2026-04-26 08:50 | 28.65378 | -14.41368 | 23332 ft | 456 kts | 56° |
| 2026-04-26 08:50 | 28.67112 | -14.38334 | 23688 ft | 458 kts | 56° |
| 2026-04-26 08:50 | 28.68856 | -14.35281 | 24028 ft | 461 kts | 56° |
| 2026-04-26 08:51 | 28.72380 | -14.29123 | 24693 ft | 466 kts | 55° |
| 2026-04-26 08:51 | 28.74159 | -14.26019 | 25033 ft | 468 kts | 55° |
| 2026-04-26 08:51 | 28.75941 | -14.22906 | 25360 ft | 470 kts | 56° |
| 2026-04-26 08:52 | 28.77727 | -14.19776 | 25678 ft | 472 kts | 56° |
| 2026-04-26 08:52 | 28.79520 | -14.16626 | 25974 ft | 474 kts | 56° |
| 2026-04-26 08:52 | 28.81319 | -14.13463 | 26278 ft | 476 kts | 56° |
| 2026-04-26 08:52 | 28.83123 | -14.10287 | 26578 ft | 478 kts | 56° |
| 2026-04-26 08:53 | 28.84936 | -14.07100 | 26875 ft | 480 kts | 56° |
| 2026-04-26 08:53 | 28.86756 | -14.03903 | 27149 ft | 481 kts | 56° |
| 2026-04-26 08:53 | 28.88580 | -14.00694 | 27401 ft | 483 kts | 56° |
| 2026-04-26 08:53 | 28.90412 | -13.97468 | 27655 ft | 485 kts | 56° |
| 2026-04-26 08:54 | 28.92252 | -13.94233 | 27903 ft | 487 kts | 56° |
| 2026-04-26 08:54 | 28.94097 | -13.90984 | 28142 ft | 488 kts | 56° |
| 2026-04-26 08:54 | 28.95944 | -13.87723 | 28373 ft | 489 kts | 56° |
| 2026-04-26 08:54 | 28.97794 | -13.84454 | 28594 ft | 491 kts | 56° |
| 2026-04-26 08:55 | 28.99650 | -13.81173 | 28809 ft | 492 kts | 56° |
| 2026-04-26 08:55 | 29.01509 | -13.77880 | 29031 ft | 493 kts | 56° |
| 2026-04-26 08:55 | 29.03364 | -13.74589 | 29336 ft | 492 kts | 56° |
| 2026-04-26 08:55 | 29.05212 | -13.71307 | 29620 ft | 491 kts | 56° |
| 2026-04-26 08:56 | 29.07055 | -13.68039 | 29903 ft | 490 kts | 56° |
| 2026-04-26 08:56 | 29.08904 | -13.64761 | 30195 ft | 489 kts | 56° |
| 2026-04-26 08:56 | 29.10744 | -13.61494 | 30476 ft | 488 kts | 56° |
| 2026-04-26 08:56 | 29.12577 | -13.58237 | 30725 ft | 488 kts | 56° |
| 2026-04-26 08:57 | 29.14422 | -13.54960 | 30978 ft | 488 kts | 56° |
| 2026-04-26 08:57 | 29.16257 | -13.51698 | 31240 ft | 487 kts | 56° |
| 2026-04-26 08:57 | 29.18114 | -13.48457 | 31506 ft | 487 kts | 54° |
| 2026-04-26 08:57 | 29.20027 | -13.45267 | 31755 ft | 486 kts | 53° |
| 2026-04-26 08:58 | 29.21979 | -13.42111 | 32016 ft | 485 kts | 53° |
| 2026-04-26 08:58 | 29.23947 | -13.38973 | 32266 ft | 485 kts | 52° |
| 2026-04-26 08:58 | 29.25890 | -13.35879 | 32502 ft | 485 kts | 53° |
| 2026-04-26 08:58 | 29.27843 | -13.32735 | 32752 ft | 484 kts | 53° |
| 2026-04-26 08:59 | 29.29776 | -13.29584 | 32978 ft | 484 kts | 53° |
| 2026-04-26 08:59 | 29.31700 | -13.26418 | 33205 ft | 484 kts | 53° |
| 2026-04-26 08:59 | 29.33619 | -13.23249 | 33438 ft | 484 kts | 53° |
| 2026-04-26 08:59 | 29.35538 | -13.20084 | 33678 ft | 483 kts | 53° |
| 2026-04-26 09:00 | 29.37460 | -13.16921 | 33903 ft | 483 kts | 53° |
| 2026-04-26 09:00 | 29.39385 | -13.13762 | 34116 ft | 483 kts | 53° |
| 2026-04-26 09:00 | 29.41308 | -13.10607 | 34349 ft | 483 kts | 53° |
| 2026-04-26 09:00 | 29.43226 | -13.07448 | 34567 ft | 483 kts | 53° |
| 2026-04-26 09:01 | 29.45141 | -13.04287 | 34780 ft | 482 kts | 53° |
| 2026-04-26 09:01 | 29.47057 | -13.01123 | 34969 ft | 483 kts | 53° |
| 2026-04-26 09:01 | 29.48973 | -12.97957 | 35157 ft | 483 kts | 53° |
| 2026-04-26 09:01 | 29.50887 | -12.94792 | 35324 ft | 483 kts | 53° |
| 2026-04-26 09:02 | 29.52807 | -12.91619 | 35501 ft | 483 kts | 53° |
| 2026-04-26 09:02 | 29.54723 | -12.88452 | 35688 ft | 483 kts | 53° |
| 2026-04-26 09:02 | 29.56638 | -12.85282 | 35852 ft | 483 kts | 53° |
| 2026-04-26 09:02 | 29.58550 | -12.82112 | 35980 ft | 484 kts | 53° |
| 2026-04-26 09:03 | 29.60469 | -12.78930 | 36000 ft | 485 kts | 53° |
| 2026-04-26 09:03 | 29.64312 | -12.72548 | 35997 ft | 485 kts | 53° |
| 2026-04-26 09:04 | 29.68150 | -12.66167 | 35990 ft | 485 kts | 53° |
| 2026-04-26 09:04 | 29.71987 | -12.59783 | 35984 ft | 486 kts | 54° |
| 2026-04-26 09:05 | 29.75817 | -12.53370 | 35985 ft | 486 kts | 54° |
| 2026-04-26 09:05 | 29.79612 | -12.46930 | 35992 ft | 486 kts | 54° |
| 2026-04-26 09:06 | 29.83401 | -12.40485 | 35992 ft | 486 kts | 54° |
| 2026-04-26 09:06 | 29.87201 | -12.34047 | 35992 ft | 486 kts | 54° |
| 2026-04-26 09:07 | 29.90999 | -12.27616 | 35989 ft | 486 kts | 54° |
| 2026-04-26 09:07 | 29.94788 | -12.21168 | 35987 ft | 485 kts | 54° |
| 2026-04-26 09:08 | 29.98571 | -12.14728 | 35993 ft | 485 kts | 54° |
| 2026-04-26 09:08 | 30.02662 | -12.08588 | 35992 ft | 481 kts | 42° |
| 2026-04-26 09:09 | 30.07471 | -12.03231 | 35975 ft | 481 kts | 42° |
| 2026-04-26 09:09 | 30.12244 | -11.97897 | 35972 ft | 481 kts | 42° |
| 2026-04-26 09:10 | 30.17039 | -11.92513 | 35970 ft | 481 kts | 42° |
| 2026-04-26 09:10 | 30.21839 | -11.87133 | 35969 ft | 480 kts | 42° |
| 2026-04-26 09:11 | 30.26638 | -11.81745 | 35971 ft | 481 kts | 42° |
| 2026-04-26 09:11 | 30.31430 | -11.76342 | 35973 ft | 481 kts | 42° |
| 2026-04-26 09:12 | 30.36218 | -11.70945 | 35975 ft | 480 kts | 42° |
| 2026-04-26 09:12 | 30.41005 | -11.65544 | 35972 ft | 480 kts | 43° |
| 2026-04-26 09:13 | 30.45787 | -11.60131 | 35971 ft | 480 kts | 43° |
| 2026-04-26 09:13 | 30.50560 | -11.54730 | 35973 ft | 480 kts | 43° |
| 2026-04-26 09:14 | 30.55333 | -11.49312 | 35975 ft | 479 kts | 43° |
| 2026-04-26 09:14 | 30.60101 | -11.43910 | 35975 ft | 479 kts | 43° |
| 2026-04-26 09:15 | 30.64856 | -11.38501 | 35975 ft | 478 kts | 43° |
| 2026-04-26 09:15 | 30.69573 | -11.33129 | 35975 ft | 478 kts | 43° |
| 2026-04-26 09:16 | 30.74313 | -11.27721 | 35971 ft | 477 kts | 43° |
| 2026-04-26 09:16 | 30.79036 | -11.22318 | 35965 ft | 476 kts | 43° |
| 2026-04-26 09:17 | 30.83756 | -11.16926 | 35962 ft | 475 kts | 43° |
| 2026-04-26 09:17 | 30.88475 | -11.11534 | 35959 ft | 475 kts | 43° |
| 2026-04-26 09:18 | 30.93181 | -11.06137 | 35950 ft | 474 kts | 44° |
| 2026-04-26 09:18 | 30.97877 | -11.00739 | 35946 ft | 474 kts | 44° |
| 2026-04-26 09:19 | 31.02571 | -10.95343 | 35943 ft | 474 kts | 44° |
| 2026-04-26 09:19 | 31.07261 | -10.89944 | 35941 ft | 474 kts | 44° |
| 2026-04-26 09:20 | 31.11944 | -10.84541 | 35939 ft | 473 kts | 44° |
| 2026-04-26 09:20 | 31.16615 | -10.79136 | 35941 ft | 473 kts | 44° |
| 2026-04-26 09:21 | 31.21285 | -10.73734 | 35942 ft | 472 kts | 44° |
| 2026-04-26 09:21 | 31.25949 | -10.68331 | 35943 ft | 472 kts | 44° |
| 2026-04-26 09:22 | 31.30605 | -10.62924 | 35942 ft | 471 kts | 44° |
| 2026-04-26 09:22 | 31.35255 | -10.57528 | 35942 ft | 471 kts | 44° |
| 2026-04-26 09:23 | 31.39864 | -10.52168 | 35943 ft | 470 kts | 44° |
| 2026-04-26 09:23 | 31.44483 | -10.46775 | 35942 ft | 468 kts | 45° |
| 2026-04-26 09:24 | 31.49094 | -10.41388 | 35941 ft | 468 kts | 45° |
| 2026-04-26 09:24 | 31.53701 | -10.36001 | 35938 ft | 467 kts | 45° |
| 2026-04-26 09:25 | 31.58299 | -10.30629 | 35938 ft | 467 kts | 45° |
| 2026-04-26 09:25 | 31.62888 | -10.25249 | 35939 ft | 466 kts | 45° |
| 2026-04-26 09:26 | 31.67470 | -10.19867 | 35941 ft | 465 kts | 45° |
| 2026-04-26 09:26 | 31.72045 | -10.14495 | 35941 ft | 465 kts | 45° |
| 2026-04-26 09:27 | 31.76612 | -10.09114 | 35942 ft | 465 kts | 45° |
| 2026-04-26 09:27 | 31.81176 | -10.03732 | 35943 ft | 465 kts | 45° |
| 2026-04-26 09:28 | 31.85732 | -9.98347 | 35943 ft | 464 kts | 45° |
| 2026-04-26 09:28 | 31.90254 | -9.92995 | 35941 ft | 464 kts | 45° |
| 2026-04-26 09:29 | 31.94797 | -9.87608 | 35939 ft | 464 kts | 45° |
| 2026-04-26 09:29 | 31.99342 | -9.82221 | 35937 ft | 463 kts | 45° |
| 2026-04-26 09:30 | 32.03882 | -9.76839 | 35935 ft | 463 kts | 45° |
| 2026-04-26 09:30 | 32.08405 | -9.71448 | 35935 ft | 463 kts | 45° |
| 2026-04-26 09:31 | 32.12926 | -9.66047 | 35936 ft | 463 kts | 45° |
| 2026-04-26 09:31 | 32.17452 | -9.60648 | 35940 ft | 462 kts | 45° |
| 2026-04-26 09:32 | 32.21984 | -9.55242 | 35945 ft | 463 kts | 45° |
| 2026-04-26 09:32 | 32.26512 | -9.49829 | 35947 ft | 463 kts | 45° |
| 2026-04-26 09:33 | 32.31025 | -9.44415 | 35948 ft | 462 kts | 45° |
| 2026-04-26 09:33 | 32.35533 | -9.39001 | 35948 ft | 462 kts | 45° |
| 2026-04-26 09:34 | 32.39272 | -9.34503 | 35948 ft | 462 kts | 45° |
| 2026-04-26 09:34 | 32.43767 | -9.29082 | 35949 ft | 461 kts | 45° |
| 2026-04-26 09:35 | 32.48261 | -9.23656 | 35949 ft | 461 kts | 45° |
| 2026-04-26 09:35 | 32.53484 | -9.17349 | 35951 ft | 461 kts | 45° |
| 2026-04-26 09:36 | 32.57250 | -9.12802 | 35952 ft | 461 kts | 45° |
| 2026-04-26 09:36 | 32.61734 | -9.07374 | 35955 ft | 460 kts | 45° |
| 2026-04-26 09:37 | 32.66185 | -9.01978 | 35958 ft | 460 kts | 45° |
| 2026-04-26 09:37 | 32.70654 | -8.96545 | 35960 ft | 459 kts | 45° |
| 2026-04-26 09:38 | 32.75119 | -8.91114 | 35959 ft | 460 kts | 45° |
| 2026-04-26 09:38 | 32.79583 | -8.85668 | 35960 ft | 460 kts | 45° |
| 2026-04-26 09:39 | 32.84044 | -8.80215 | 35963 ft | 460 kts | 45° |
| 2026-04-26 09:39 | 32.88504 | -8.74762 | 35965 ft | 459 kts | 45° |
| 2026-04-26 09:40 | 32.92960 | -8.69318 | 35967 ft | 459 kts | 45° |
| 2026-04-26 09:40 | 32.97409 | -8.63871 | 35964 ft | 459 kts | 45° |
| 2026-04-26 09:41 | 33.01850 | -8.58411 | 35958 ft | 459 kts | 45° |
| 2026-04-26 09:41 | 33.06291 | -8.52953 | 35955 ft | 458 kts | 45° |
| 2026-04-26 09:42 | 33.10727 | -8.47490 | 35946 ft | 458 kts | 45° |
| 2026-04-26 09:42 | 33.15126 | -8.42054 | 35945 ft | 458 kts | 45° |
| 2026-04-26 09:43 | 33.19663 | -8.36722 | 35944 ft | 457 kts | 37° |
| 2026-04-26 09:43 | 33.24955 | -8.32547 | 35942 ft | 456 kts | 31° |
| 2026-04-26 09:44 | 33.30323 | -8.28512 | 35942 ft | 456 kts | 31° |
| 2026-04-26 09:44 | 33.35685 | -8.24474 | 35941 ft | 456 kts | 31° |
| 2026-04-26 09:45 | 33.41045 | -8.20426 | 35945 ft | 455 kts | 31° |
| 2026-04-26 09:45 | 33.46400 | -8.16375 | 35955 ft | 455 kts | 31° |
| 2026-04-26 09:46 | 33.51754 | -8.12321 | 35960 ft | 455 kts | 31° |
| 2026-04-26 09:46 | 33.57104 | -8.08264 | 35965 ft | 455 kts | 31° |
| 2026-04-26 09:47 | 33.62449 | -8.04197 | 35966 ft | 455 kts | 31° |
| 2026-04-26 09:47 | 33.67799 | -8.00128 | 35967 ft | 455 kts | 31° |
| 2026-04-26 09:48 | 33.73107 | -7.96088 | 35967 ft | 454 kts | 31° |
| 2026-04-26 09:48 | 33.78445 | -7.92019 | 35965 ft | 454 kts | 31° |
| 2026-04-26 09:49 | 33.83777 | -7.87954 | 35963 ft | 454 kts | 31° |
| 2026-04-26 09:49 | 33.89107 | -7.83880 | 35962 ft | 454 kts | 31° |
| 2026-04-26 09:50 | 33.94423 | -7.79794 | 35961 ft | 453 kts | 31° |
| 2026-04-26 09:50 | 33.99743 | -7.75706 | 35957 ft | 453 kts | 31° |
| 2026-04-26 09:51 | 34.05061 | -7.71621 | 35956 ft | 453 kts | 31° |
| 2026-04-26 09:51 | 34.10381 | -7.67534 | 35953 ft | 453 kts | 31° |
| 2026-04-26 09:52 | 34.15697 | -7.63434 | 35957 ft | 453 kts | 31° |
| 2026-04-26 09:52 | 34.23676 | -7.57272 | 35965 ft | 454 kts | 31° |
| 2026-04-26 09:53 | 34.28996 | -7.53152 | 35973 ft | 454 kts | 31° |
| 2026-04-26 09:53 | 34.34316 | -7.49028 | 35976 ft | 454 kts | 31° |
| 2026-04-26 09:54 | 34.39637 | -7.44907 | 35977 ft | 454 kts | 31° |
| 2026-04-26 09:54 | 34.44951 | -7.40768 | 35975 ft | 454 kts | 31° |
| 2026-04-26 09:55 | 34.50259 | -7.36632 | 35973 ft | 453 kts | 31° |
| 2026-04-26 09:55 | 34.55562 | -7.32504 | 35969 ft | 453 kts | 31° |
| 2026-04-26 09:56 | 34.60863 | -7.28367 | 35967 ft | 453 kts | 31° |
| 2026-04-26 09:56 | 34.66165 | -7.24223 | 35968 ft | 453 kts | 31° |
| 2026-04-26 09:57 | 34.71460 | -7.20068 | 35967 ft | 453 kts | 31° |
| 2026-04-26 09:57 | 34.76723 | -7.15935 | 35972 ft | 453 kts | 31° |
| 2026-04-26 09:58 | 34.82017 | -7.11783 | 35974 ft | 453 kts | 31° |
| 2026-04-26 09:58 | 34.87311 | -7.07624 | 35974 ft | 453 kts | 31° |
| 2026-04-26 09:59 | 34.92607 | -7.03451 | 35978 ft | 453 kts | 31° |
| 2026-04-26 09:59 | 34.97897 | -6.99274 | 35983 ft | 453 kts | 31° |
| 2026-04-26 10:00 | 35.03185 | -6.95080 | 35989 ft | 453 kts | 31° |
| 2026-04-26 10:00 | 35.08473 | -6.90887 | 35990 ft | 453 kts | 31° |
| 2026-04-26 10:01 | 35.13760 | -6.86700 | 35996 ft | 453 kts | 31° |
| 2026-04-26 10:01 | 35.19041 | -6.82511 | 35999 ft | 453 kts | 31° |
| 2026-04-26 10:02 | 35.24320 | -6.78309 | 35998 ft | 453 kts | 31° |
| 2026-04-26 10:02 | 35.29559 | -6.74131 | 36001 ft | 453 kts | 31° |
| 2026-04-26 10:03 | 35.34832 | -6.69912 | 36008 ft | 452 kts | 31° |
| 2026-04-26 10:03 | 35.40137 | -6.65774 | 36011 ft | 451 kts | 30° |
| 2026-04-26 10:04 | 35.45470 | -6.61716 | 36011 ft | 451 kts | 29° |
| 2026-04-26 10:04 | 35.50798 | -6.57647 | 36012 ft | 451 kts | 30° |
| 2026-04-26 10:05 | 35.56110 | -6.53541 | 36014 ft | 451 kts | 30° |
| 2026-04-26 10:05 | 35.61412 | -6.49422 | 36018 ft | 451 kts | 30° |
| 2026-04-26 10:06 | 35.66710 | -6.45313 | 36025 ft | 450 kts | 30° |
| 2026-04-26 10:06 | 35.72010 | -6.41204 | 36030 ft | 450 kts | 30° |
| 2026-04-26 10:07 | 35.77299 | -6.37100 | 36027 ft | 449 kts | 30° |
| 2026-04-26 10:07 | 35.82582 | -6.32986 | 36028 ft | 449 kts | 30° |
| 2026-04-26 10:08 | 35.87762 | -6.28769 | 36031 ft | 450 kts | 32° |
| 2026-04-26 10:08 | 35.92883 | -6.24322 | 36036 ft | 450 kts | 33° |
| 2026-04-26 10:09 | 35.97990 | -6.19862 | 36049 ft | 449 kts | 32° |
| 2026-04-26 10:09 | 36.00552 | -6.17650 | 35724 ft | 450 kts | 32° |
| 2026-04-26 10:09 | 36.03134 | -6.15435 | 34428 ft | 453 kts | 32° |
| 2026-04-26 10:10 | 36.05738 | -6.13209 | 32859 ft | 456 kts | 32° |
| 2026-04-26 10:10 | 36.08349 | -6.10978 | 31236 ft | 458 kts | 32° |
| 2026-04-26 10:10 | 36.10974 | -6.08730 | 29457 ft | 460 kts | 32° |
| 2026-04-26 10:10 | 36.13633 | -6.06448 | 27898 ft | 470 kts | 33° |
| 2026-04-26 10:11 | 36.16291 | -6.04156 | 27291 ft | 460 kts | 33° |
| 2026-04-26 10:11 | 36.18893 | -6.01907 | 26570 ft | 454 kts | 33° |
| 2026-04-26 10:11 | 36.21503 | -5.99755 | 25851 ft | 448 kts | 28° |
| 2026-04-26 10:11 | 36.24304 | -5.98142 | 25124 ft | 442 kts | 19° |
| 2026-04-26 10:12 | 36.27252 | -5.97167 | 24411 ft | 437 kts | 9° |
| 2026-04-26 10:12 | 36.30256 | -5.96724 | 23719 ft | 433 kts | 6° |
| 2026-04-26 10:12 | 36.33240 | -5.96340 | 23031 ft | 429 kts | 6° |
| 2026-04-26 10:12 | 36.36197 | -5.95954 | 22378 ft | 425 kts | 6° |
| 2026-04-26 10:13 | 36.39128 | -5.95570 | 21740 ft | 422 kts | 6° |
| 2026-04-26 10:13 | 36.42028 | -5.95193 | 21145 ft | 418 kts | 6° |
| 2026-04-26 10:13 | 36.44904 | -5.94821 | 20599 ft | 412 kts | 6° |
| 2026-04-26 10:13 | 36.47746 | -5.94476 | 20015 ft | 409 kts | 3° |
| 2026-04-26 10:14 | 36.50538 | -5.94581 | 19489 ft | 405 kts | 353° |
| 2026-04-26 10:14 | 36.53301 | -5.95213 | 18958 ft | 402 kts | 348° |
| 2026-04-26 10:14 | 36.56024 | -5.95927 | 18475 ft | 398 kts | 348° |
| 2026-04-26 10:14 | 36.58721 | -5.96636 | 17964 ft | 394 kts | 348° |
| 2026-04-26 10:15 | 36.61392 | -5.97341 | 17456 ft | 391 kts | 348° |
| 2026-04-26 10:15 | 36.64041 | -5.98041 | 16948 ft | 388 kts | 348° |
| 2026-04-26 10:15 | 36.66671 | -5.98737 | 16459 ft | 384 kts | 349° |
| 2026-04-26 10:15 | 36.69277 | -5.99425 | 15942 ft | 382 kts | 349° |
| 2026-04-26 10:16 | 36.71872 | -6.00108 | 15408 ft | 380 kts | 349° |
| 2026-04-26 10:16 | 36.74441 | -6.00780 | 14887 ft | 378 kts | 349° |
| 2026-04-26 10:16 | 36.77003 | -6.01452 | 14360 ft | 375 kts | 349° |
| 2026-04-26 10:16 | 36.79551 | -6.02125 | 13796 ft | 374 kts | 349° |
| 2026-04-26 10:17 | 36.82092 | -6.02736 | 13233 ft | 371 kts | 354° |
| 2026-04-26 10:17 | 36.84654 | -6.03119 | 12670 ft | 369 kts | 354° |
| 2026-04-26 10:17 | 36.87198 | -6.03500 | 12124 ft | 366 kts | 355° |
| 2026-04-26 10:17 | 36.89713 | -6.03885 | 11545 ft | 363 kts | 355° |
| 2026-04-26 10:18 | 36.92217 | -6.04266 | 10966 ft | 361 kts | 355° |
| 2026-04-26 10:18 | 36.94668 | -6.04639 | 10782 ft | 348 kts | 355° |
| 2026-04-26 10:18 | 36.97020 | -6.04995 | 10673 ft | 333 kts | 355° |
| 2026-04-26 10:18 | 36.99273 | -6.05335 | 10572 ft | 319 kts | 355° |
| 2026-04-26 10:19 | 37.01440 | -6.05661 | 10451 ft | 308 kts | 355° |
| 2026-04-26 10:19 | 37.03540 | -6.05977 | 10254 ft | 300 kts | 356° |
| 2026-04-26 10:19 | 37.05593 | -6.06283 | 10186 ft | 296 kts | 356° |
| 2026-04-26 10:19 | 37.07643 | -6.06588 | 10076 ft | 296 kts | 356° |
| 2026-04-26 10:20 | 37.09710 | -6.06896 | 9566 ft | 301 kts | 356° |
| 2026-04-26 10:20 | 37.11078 | -6.07101 | 9362 ft | 298 kts | 356° |
| 2026-04-26 10:20 | 37.13800 | -6.07515 | 8832 ft | 296 kts | 356° |
| 2026-04-26 10:20 | 37.15843 | -6.07827 | 8425 ft | 295 kts | 356° |
| 2026-04-26 10:21 | 37.17878 | -6.08137 | 8019 ft | 294 kts | 356° |
| 2026-04-26 10:21 | 37.19901 | -6.08446 | 7617 ft | 292 kts | 356° |
| 2026-04-26 10:21 | 37.21911 | -6.08752 | 7243 ft | 289 kts | 356° |
| 2026-04-26 10:21 | 37.23901 | -6.09052 | 6846 ft | 287 kts | 356° |
| 2026-04-26 10:22 | 37.25871 | -6.09350 | 6280 ft | 284 kts | 356° |
| 2026-04-26 10:22 | 37.27820 | -6.09646 | 5650 ft | 280 kts | 356° |
| 2026-04-26 10:22 | 37.29744 | -6.09944 | 5016 ft | 277 kts | 356° |
| 2026-04-26 10:22 | 37.31642 | -6.10237 | 4355 ft | 273 kts | 356° |
| 2026-04-26 10:23 | 37.33522 | -6.10523 | 3679 ft | 272 kts | 356° |
| 2026-04-26 10:23 | 37.35366 | -6.10803 | 3309 ft | 259 kts | 355° |
| 2026-04-26 10:23 | 37.37077 | -6.11065 | 3164 ft | 236 kts | 355° |
| 2026-04-26 10:23 | 37.38652 | -6.11307 | 3062 ft | 219 kts | 357° |
| 2026-04-26 10:24 | 37.40090 | -6.11112 | 2941 ft | 201 kts | 26° |
| 2026-04-26 10:24 | 37.41136 | -6.10142 | 2900 ft | 178 kts | 53° |
| 2026-04-26 10:24 | 37.41652 | -6.08825 | 2759 ft | 161 kts | 79° |
| 2026-04-26 10:24 | 37.41711 | -6.07487 | 2662 ft | 148 kts | 90° |
| 2026-04-26 10:25 | 37.41710 | -6.06210 | 2460 ft | 143 kts | 89° |
| 2026-04-26 10:25 | 37.41718 | -6.04959 | 2255 ft | 142 kts | 89° |
| 2026-04-26 10:25 | 37.41727 | -6.03722 | 2095 ft | 141 kts | 89° |
| 2026-04-26 10:25 | 37.41734 | -6.02495 | 2014 ft | 140 kts | 89° |
| 2026-04-26 10:26 | 37.41742 | -6.01251 | 1766 ft | 144 kts | 89° |
| 2026-04-26 10:26 | 37.41750 | -6.00020 | 1555 ft | 139 kts | 88° |
| 2026-04-26 10:26 | 37.41756 | -5.98820 | 1321 ft | 136 kts | 88° |
| 2026-04-26 10:26 | 37.41761 | -5.97629 | 1127 ft | 136 kts | 89° |
| 2026-04-26 10:27 | 37.41766 | -5.96438 | 941 ft | 136 kts | 88° |
| 2026-04-26 10:27 | 37.41769 | -5.95651 | 827 ft | 136 kts | 88° |
| 2026-04-26 10:27 | 37.41774 | -5.94464 | 643 ft | 136 kts | 89° |
| 2026-04-26 10:27 | 37.41780 | -5.92897 | 401 ft | 135 kts | 89° |
| 2026-04-26 10:28 | 37.41783 | -5.92089 | 288 ft | 137 kts | 90° |
| 2026-04-26 10:28 | 37.41784 | -5.90522 | 99 ft | 127 kts | 90° |
| 2026-04-26 10:28 | 37.41795 | -5.89599 | 98 ft | 82 kts | 90° |
| 2026-04-26 10:28 | 37.41796 | -5.89192 | 100 ft | 63 kts | 90° |
| 2026-04-26 10:29 | 37.41797 | -5.88846 | 104 ft | 8 kts | 86° |
| 2026-04-26 10:29 | 37.41831 | -5.88784 | 103 ft | 11 kts | 28° |
| 2026-04-26 10:29 | 37.41905 | -5.88762 | 102 ft | 4 kts | 11° |
| 2026-04-26 10:29 | 37.41929 | -5.88756 | 103 ft | 3 kts | 11° |
| 2026-04-26 10:30 | 37.41952 | -5.88751 | 102 ft | 4 kts | 6° |
| 2026-04-26 10:30 | 37.41985 | -5.88791 | 101 ft | 8 kts | 281° |
| 2026-04-26 10:30 | 37.41984 | -5.88855 | 102 ft | 7 kts | 268° |
| 2026-04-26 10:30 | 37.41983 | -5.88918 | 102 ft | 7 kts | 269° |
| 2026-04-26 10:31 | 37.41984 | -5.89011 | 101 ft | 17 kts | 270° |
| 2026-04-26 10:31 | 37.41983 | -5.89159 | 100 ft | 17 kts | 270° |
| 2026-04-26 10:31 | 37.41983 | -5.89295 | 100 ft | 12 kts | 270° |
| 2026-04-26 10:31 | 37.41999 | -5.89376 | 99 ft | 9 kts | 307° |
| 2026-04-26 10:32 | 37.42052 | -5.89445 | 98 ft | 13 kts | 314° |
| 2026-04-26 10:32 | 37.42111 | -5.89521 | 97 ft | 12 kts | 314° |
| 2026-04-26 10:32 | 37.42168 | -5.89595 | 96 ft | 12 kts | 314° |
| 2026-04-26 10:32 | 37.42226 | -5.89669 | 94 ft | 12 kts | 314° |
| 2026-04-26 10:33 | 37.42263 | -5.89729 | 93 ft | 7 kts | 285° |
| 2026-04-26 10:33 | 37.42262 | -5.89784 | 94 ft | 6 kts | 289° |
| 2026-04-26 10:33 | 37.42285 | -5.89818 | 94 ft | 5 kts | 314° |
| 2026-04-26 10:33 | 37.42300 | -5.89838 | 95 ft | 2 kts | 314° |
| 2026-04-26 10:34 | 37.42303 | -5.89842 | 94 ft | 0 kts | 314° |